createdAt,value
2023-03-18T00:01:39.128Z,20.00
2023-03-18T00:04:07.900Z,18.83
2023-03-18T00:06:39.623Z,20.50
2023-03-18T00:09:08.297Z,21.87
2023-03-18T00:11:37.620Z,23.80
2023-03-18T00:14:06.610Z,25.97
2023-03-18T00:16:36.934Z,28.23
2023-03-18T00:19:06.755Z,28.43
2023-03-18T00:21:36.889Z,28.23
2023-03-18T00:24:08.889Z,29.63
2023-03-18T00:26:37.427Z,27.90
2023-03-18T00:29:06.274Z,28.63
2023-03-18T00:31:35.942Z,26.87
2023-03-18T00:34:04.833Z,26.23
2023-03-18T00:36:33.605Z,24.50
2023-03-18T00:39:03.746Z,22.03
2023-03-18T00:41:39.631Z,19.70
2023-03-18T00:44:08.631Z,19.93
2023-03-18T00:46:39.184Z,19.60
2023-03-18T00:49:09.736Z,17.37
2023-03-18T00:51:41.347Z,18.87
2023-03-18T00:54:13.671Z,17.57
2023-03-18T00:56:43.210Z,17.13
2023-03-18T00:59:11.949Z,19.00
2023-03-18T01:01:41.114Z,19.60
2023-03-18T01:04:09.868Z,20.40
2023-03-18T01:06:39.215Z,22.70
2023-03-18T01:09:10.807Z,21.77
2023-03-18T01:11:40.956Z,21.93
2023-03-18T01:14:10.584Z,19.87
2023-03-18T01:16:39.335Z,19.13
2023-03-18T01:19:09.615Z,19.53
2023-03-18T01:21:38.302Z,19.87
2023-03-18T01:24:07.511Z,20.70
2023-03-18T01:26:37.092Z,20.97
2023-03-18T01:29:06.188Z,19.87
2023-03-18T01:31:37.430Z,20.20
2023-03-18T01:34:06.391Z,19.53
2023-03-18T01:36:35.409Z,19.33
2023-03-18T01:39:05.813Z,19.50
2023-03-18T01:41:34.563Z,19.57
2023-03-18T01:44:04.457Z,19.90
2023-03-18T01:46:39.141Z,19.63
2023-03-18T01:49:16.437Z,20.20
2023-03-18T01:51:48.151Z,22.17
2023-03-18T01:54:18.703Z,21.67
2023-03-18T01:56:50.443Z,26.47
2023-03-18T01:59:21.602Z,25.70
2023-03-18T02:02:01.924Z,25.60
2023-03-18T02:04:33.608Z,27.23
2023-03-18T02:07:02.345Z,25.87
2023-03-18T02:09:31.342Z,26.80
2023-03-18T02:12:06.988Z,25.53
2023-03-18T02:14:35.741Z,26.17
2023-03-18T02:17:12.788Z,27.40
2023-03-18T02:19:59.729Z,27.03
2023-03-18T02:22:38.952Z,27.97
2023-03-18T02:25:37.363Z,27.90
2023-03-18T02:28:09.567Z,29.03
2023-03-18T02:30:47.663Z,28.80
2023-03-18T02:33:19.406Z,27.57
2023-03-18T02:35:51.539Z,27.87
2023-03-18T02:38:20.214Z,27.43
2023-03-18T02:40:49.018Z,29.87
2023-03-18T02:43:34.629Z,29.53
2023-03-18T02:46:07.511Z,29.53
2023-03-18T02:48:39.114Z,30.33
2023-03-18T02:51:09.051Z,30.40
2023-03-18T02:53:38.860Z,30.23
2023-03-18T02:56:10.694Z,31.00
2023-03-18T02:58:41.823Z,30.93
2023-03-18T03:01:11.357Z,30.40
2023-03-18T03:03:41.094Z,30.40
2023-03-18T03:06:11.151Z,28.60
2023-03-18T03:08:40.421Z,28.40
2023-03-18T03:11:09.341Z,28.50
2023-03-18T03:13:39.884Z,27.13
2023-03-18T03:16:11.733Z,25.93
2023-03-18T03:18:40.767Z,25.60
2023-03-18T03:21:10.050Z,22.20
2023-03-18T03:23:39.165Z,22.50
2023-03-18T03:26:08.418Z,23.10
2023-03-18T03:28:37.059Z,23.23
2023-03-18T03:31:06.921Z,22.27
2023-03-18T03:33:36.361Z,22.23
2023-03-18T03:36:05.216Z,22.00
2023-03-18T03:38:33.876Z,22.53
2023-03-18T03:41:02.971Z,22.37
2023-03-18T03:43:32.096Z,20.30
2023-03-18T03:46:00.853Z,20.37
2023-03-18T03:48:29.608Z,20.73
2023-03-18T03:50:58.662Z,20.67
2023-03-18T03:53:28.327Z,20.80
2023-03-18T03:55:59.169Z,19.73
2023-03-18T03:58:27.803Z,20.53
2023-03-18T04:00:56.457Z,19.60
2023-03-18T04:03:25.621Z,19.93
2023-03-18T04:05:54.759Z,17.80
2023-03-18T04:08:23.525Z,19.57
2023-03-18T04:10:52.075Z,19.70
2023-03-18T04:13:20.851Z,20.03
2023-03-18T04:15:49.458Z,21.23
2023-03-18T04:18:18.087Z,20.37
2023-03-18T04:20:48.059Z,21.27
2023-03-18T04:23:16.614Z,21.57
2023-03-18T04:25:45.252Z,20.77
2023-03-18T04:28:14.367Z,20.13
2023-03-18T04:30:43.048Z,21.13
2023-03-18T04:33:13.045Z,21.50
2023-03-18T04:35:43.648Z,21.47
2023-03-18T04:38:12.888Z,22.17
2023-03-18T04:40:42.939Z,18.83
2023-03-18T04:43:13.133Z,22.47
2023-03-18T04:45:41.845Z,24.53
2023-03-18T04:48:10.445Z,25.30
2023-03-18T04:50:39.268Z,24.07
2023-03-18T04:53:10.369Z,24.57
2023-03-18T04:55:39.634Z,24.73
2023-03-18T04:58:08.395Z,23.63
2023-03-18T05:00:37.588Z,22.40
2023-03-18T05:03:07.427Z,23.37
2023-03-18T05:05:38.461Z,22.60
2023-03-18T05:08:07.680Z,23.07
2023-03-18T05:10:36.442Z,22.73
2023-03-18T05:13:05.002Z,22.47
2023-03-18T05:15:34.749Z,21.97
2023-03-18T05:18:04.897Z,22.43
2023-03-18T05:20:33.960Z,22.30
2023-03-18T05:23:03.160Z,23.23
2023-03-18T05:25:31.933Z,22.27
2023-03-18T05:28:01.165Z,20.87
2023-03-18T05:30:29.954Z,21.93
2023-03-18T05:32:58.734Z,18.60
2023-03-18T05:35:27.592Z,17.60
2023-03-18T05:37:56.502Z,17.40
2023-03-18T05:40:25.059Z,14.60
2023-03-18T05:42:56.611Z,13.97
2023-03-18T05:45:24.354Z,15.07
2023-03-18T05:47:53.275Z,14.60
2023-03-18T05:50:36.590Z,14.57
2023-03-18T05:53:06.702Z,18.90
2023-03-18T05:55:36.717Z,20.20
2023-03-18T05:58:06.316Z,22.53
2023-03-18T06:00:35.476Z,24.87
2023-03-18T06:03:04.184Z,28.00
2023-03-18T06:05:33.472Z,26.13
2023-03-18T06:08:03.082Z,26.60
2023-03-18T06:10:32.414Z,26.63
2023-03-18T06:13:01.180Z,28.27
2023-03-18T06:15:30.700Z,28.47
2023-03-18T06:17:59.567Z,28.50
2023-03-18T06:20:28.272Z,27.87
2023-03-18T06:22:57.026Z,23.63
2023-03-18T06:25:26.600Z,22.27
2023-03-18T06:27:55.180Z,23.37
2023-03-18T06:30:26.248Z,21.50
2023-03-18T06:32:55.017Z,19.17
2023-03-18T06:35:28.304Z,20.50
2023-03-18T06:37:57.054Z,19.23
2023-03-18T06:40:26.133Z,19.87
2023-03-18T06:42:54.855Z,21.07
2023-03-18T06:45:23.649Z,22.23
2023-03-18T06:47:52.300Z,22.53
2023-03-18T06:50:22.482Z,22.57
2023-03-18T06:52:51.176Z,23.10
2023-03-18T06:55:19.894Z,22.60
2023-03-18T06:57:48.616Z,22.70
2023-03-18T07:00:19.942Z,25.53
2023-03-18T07:02:48.898Z,24.23
2023-03-18T07:05:17.951Z,22.87
2023-03-18T07:07:46.920Z,23.90
2023-03-18T07:10:24.513Z,25.10
2023-03-18T07:12:53.278Z,25.83
2023-03-18T07:15:24.079Z,25.00
2023-03-18T07:17:53.206Z,26.83
2023-03-18T07:20:27.281Z,26.93
2023-03-18T07:22:55.965Z,27.47
2023-03-18T07:25:24.797Z,28.23
2023-03-18T07:27:57.915Z,27.33
2023-03-18T07:30:31.128Z,27.33
2023-03-18T07:33:06.029Z,25.57
2023-03-18T07:35:36.958Z,28.37
2023-03-18T07:38:05.624Z,28.00
2023-03-18T07:40:34.227Z,26.27
2023-03-18T07:43:03.612Z,25.80
2023-03-18T07:45:32.643Z,25.07
2023-03-18T07:48:01.266Z,24.17
2023-03-18T07:50:38.686Z,25.47
2023-03-18T07:53:07.468Z,25.67
2023-03-18T07:55:38.678Z,27.33
2023-03-18T07:58:07.870Z,22.83
2023-03-18T08:00:36.547Z,23.43
2023-03-18T08:03:06.090Z,22.10
2023-03-18T08:05:35.090Z,21.90
2023-03-18T08:08:05.456Z,21.77
2023-03-18T08:10:34.235Z,22.37
2023-03-18T08:13:08.795Z,21.83
2023-03-18T08:15:37.570Z,20.67
2023-03-18T08:18:09.051Z,21.70
2023-03-18T08:20:36.565Z,22.17
2023-03-18T08:23:07.690Z,21.00
2023-03-18T08:25:35.941Z,19.57
2023-03-18T08:28:07.758Z,21.47
2023-03-18T08:30:36.674Z,20.60
2023-03-18T08:33:05.850Z,20.40
2023-03-18T08:35:36.307Z,21.10
2023-03-18T08:38:04.908Z,21.23
2023-03-18T08:40:34.943Z,20.77
2023-03-18T08:43:03.591Z,19.37
2023-03-18T08:46:08.162Z,18.00
2023-03-18T08:55:45.700Z,16.93
2023-03-18T09:01:33.122Z,10.73
2023-03-18T09:04:25.458Z,13.10
2023-03-18T09:14:46.154Z,11.60
2023-03-18T09:23:08.890Z,9.97
2023-03-18T09:32:03.983Z,12.37
2023-03-18T09:40:58.336Z,7.13
2023-03-18T09:45:36.416Z,7.57
2023-03-18T09:50:24.787Z,6.47
2023-03-18T09:56:50.572Z,5.87
2023-03-18T10:15:59.764Z,6.83
2023-03-18T10:18:37.190Z,5.23
2023-03-18T10:21:24.049Z,5.30
2023-03-18T10:25:17.194Z,5.87
2023-03-18T10:45:22.137Z,4.17
2023-03-18T10:48:10.929Z,3.90
2023-03-18T11:23:52.370Z,3.03
2023-03-18T11:37:02.947Z,3.00
2023-03-18T11:39:34.745Z,2.70
2023-03-18T11:42:11.213Z,3.10
2023-03-18T11:44:40.294Z,3.53
2023-03-18T11:47:18.017Z,3.73
2023-03-18T11:49:47.157Z,3.00
2023-03-18T11:52:42.969Z,2.83
2023-03-18T11:55:16.495Z,3.23
2023-03-18T11:57:59.843Z,2.73
2023-03-18T12:00:43.640Z,2.60
2023-03-18T12:04:12.593Z,2.80
2023-03-18T12:06:45.390Z,2.73
2023-03-18T12:09:23.559Z,2.67
2023-03-18T12:11:57.090Z,3.40
2023-03-18T12:14:56.679Z,3.03
2023-03-18T12:17:49.898Z,2.80
2023-03-18T12:20:27.952Z,3.00
2023-03-18T12:23:08.058Z,2.67
2023-03-18T12:25:45.711Z,2.67
2023-03-18T12:28:47.552Z,3.27
2023-03-18T12:31:45.224Z,3.30
2023-03-18T12:34:35.280Z,2.93
2023-03-18T12:37:28.479Z,3.30
2023-03-18T12:40:36.426Z,3.67
2023-03-18T12:43:28.254Z,2.97
2023-03-18T12:46:02.888Z,3.10
2023-03-18T12:48:44.144Z,2.87
2023-03-18T12:51:20.418Z,2.80
2023-03-18T12:54:05.300Z,2.63
2023-03-18T12:56:37.025Z,2.80
2023-03-18T12:59:15.806Z,2.70
2023-03-18T13:01:49.898Z,3.00
2023-03-18T13:04:22.295Z,2.23
2023-03-18T13:07:06.127Z,3.20
2023-03-18T13:09:40.740Z,2.72
2023-03-18T13:12:24.718Z,2.90
2023-03-18T13:15:18.999Z,2.80
2023-03-18T13:17:50.300Z,2.80
2023-03-18T13:20:22.109Z,2.63
2023-03-18T13:23:00.022Z,2.70
2023-03-18T13:25:56.601Z,2.80
2023-03-18T13:28:41.205Z,2.80
2023-03-18T13:31:31.151Z,2.85
2023-03-18T13:34:06.127Z,2.60
2023-03-18T13:36:46.583Z,2.53
2023-03-18T13:39:43.956Z,2.45
2023-03-18T13:42:27.042Z,2.90
2023-03-18T13:45:23.097Z,2.47
2023-03-18T13:48:19.836Z,2.13
2023-03-18T13:50:50.259Z,2.33
2023-03-18T13:53:33.484Z,2.33
2023-03-18T13:56:05.482Z,2.87
2023-03-18T13:58:48.879Z,2.90
2023-03-18T14:01:32.459Z,2.73
2023-03-18T14:04:23.161Z,2.50
2023-03-18T14:07:18.457Z,5.90
2023-03-18T14:10:18.360Z,2.70
2023-03-18T14:12:43.066Z,2.57
2023-03-18T14:15:20.419Z,2.60
2023-03-18T14:17:59.489Z,2.83
2023-03-18T14:20:40.520Z,2.90
2023-03-18T14:23:34.313Z,2.77
2023-03-18T14:26:54.894Z,4.80
2023-03-18T14:29:33.408Z,11.90
2023-03-18T14:32:04.928Z,3.07
2023-03-18T14:35:20.983Z,3.13
2023-03-18T14:38:03.428Z,2.72
2023-03-18T14:40:44.615Z,2.60
2023-03-18T14:43:29.391Z,5.60
2023-03-18T14:46:04.456Z,2.90
2023-03-18T14:48:35.741Z,2.63
2023-03-18T14:51:10.236Z,2.53
2023-03-18T14:53:56.491Z,2.77
2023-03-18T14:56:27.674Z,2.30
2023-03-18T14:58:57.152Z,2.60
2023-03-18T15:01:31.891Z,3.40
2023-03-18T15:04:02.169Z,2.40
2023-03-18T15:06:35.154Z,2.57
2023-03-18T15:09:08.859Z,2.70
2023-03-18T15:11:44.518Z,2.73
2023-03-18T15:14:30.863Z,4.57
2023-03-18T15:17:05.043Z,3.00
2023-03-18T15:19:36.897Z,2.57
2023-03-18T15:22:07.952Z,3.40
2023-03-18T15:24:42.501Z,2.83
2023-03-18T15:27:31.805Z,3.00
2023-03-18T15:30:06.776Z,2.30
2023-03-18T15:32:48.191Z,3.30
2023-03-18T15:35:28.925Z,2.40
2023-03-18T15:38:06.836Z,2.57
2023-03-18T15:40:41.422Z,3.20
2023-03-18T15:43:39.513Z,2.40
2023-03-18T16:02:18.233Z,2.40
2023-03-18T16:05:19.345Z,2.37
2023-03-18T16:24:18.985Z,2.53
2023-03-18T16:30:25.686Z,3.20
2023-03-18T17:07:09.734Z,3.53
2023-03-18T20:22:05.557Z,11.73
2023-03-18T20:41:29.601Z,9.63
2023-03-18T20:44:00.840Z,10.17
2023-03-18T20:46:31.518Z,11.10
2023-03-18T20:49:00.743Z,11.43
2023-03-18T20:51:34.192Z,11.13
2023-03-18T20:54:17.802Z,11.70
2023-03-18T20:56:49.603Z,10.33
2023-03-18T20:59:19.962Z,10.97
2023-03-18T21:01:48.721Z,11.77
2023-03-18T21:04:20.917Z,11.13
2023-03-18T21:06:49.552Z,11.20
2023-03-18T21:09:18.059Z,10.67
2023-03-18T21:11:46.701Z,10.80
2023-03-18T21:14:22.452Z,11.20
2023-03-18T21:16:51.921Z,11.83
2023-03-18T21:19:23.693Z,10.97
2023-03-18T21:21:52.340Z,10.90
2023-03-18T21:24:26.845Z,10.70
2023-03-18T21:27:04.583Z,11.90
2023-03-18T21:29:26.810Z,10.40
2023-03-18T21:31:55.863Z,10.67
2023-03-18T21:34:24.581Z,9.80
2023-03-18T21:36:53.122Z,9.40
2023-03-18T21:39:33.752Z,9.30
2023-03-18T21:42:07.453Z,10.50
2023-03-18T21:44:36.391Z,9.37
2023-03-18T21:47:05.036Z,9.43
2023-03-18T21:49:34.608Z,10.67
2023-03-18T21:52:03.715Z,11.07
2023-03-18T21:54:32.298Z,13.30
2023-03-18T21:57:02.403Z,12.40
2023-03-18T21:59:31.170Z,12.60
2023-03-18T22:01:59.828Z,19.63
2023-03-18T22:04:28.557Z,15.27
2023-03-18T22:07:06.603Z,11.80
2023-03-18T22:09:35.270Z,11.37
2023-03-18T22:12:03.979Z,12.13
2023-03-18T22:14:32.507Z,11.50
2023-03-18T22:17:01.081Z,11.73
2023-03-18T22:19:29.805Z,12.53
2023-03-18T22:21:58.603Z,10.07
2023-03-18T22:24:29.995Z,10.90
2023-03-18T22:27:00.453Z,10.77
2023-03-18T22:29:29.407Z,10.80
2023-03-18T22:31:58.603Z,11.10
2023-03-18T22:34:28.878Z,12.10
2023-03-18T22:36:59.176Z,14.20
2023-03-18T22:39:29.326Z,12.47
2023-03-18T22:42:20.761Z,12.40
2023-03-18T22:48:07.856Z,12.67
2023-03-18T23:14:57.679Z,12.77
2023-03-18T23:34:18.026Z,15.67
2023-03-18T23:43:37.011Z,15.70
2023-03-18T23:49:23.540Z,17.77
2023-03-18T23:51:56.197Z,16.77
2023-03-18T23:54:32.794Z,15.73
2023-03-18T23:57:19.035Z,16.57
